Flight Track Log - Related Links

Times and Time Zones

All times are in EDT time to prevent confusion due to time zone crossing. See the ANA176 flight status page for this flight to view local times or setup timezone preferences in your user account.

Time Position Orientation Groundspeed Altitude Reporting Facility
EDT Latitude Longitude Course Direction KTS MPH feet Rate Location/Type
Thu 03:47:00 AM 22.8419 114.6669 52° Northeast  Level Estimated
Thu 03:48:00 AM 22.9177 114.7749 53° Northeast  Level Estimated
Thu 03:49:00 AM 22.9935 114.8830 53° Northeast  Level Estimated
Thu 03:50:00 AM 23.0692 114.9912 53° Northeast  Level Estimated
Thu 03:51:00 AM 23.1448 115.0995 53° Northeast  Level Estimated
Thu 03:52:00 AM 23.2204 115.2079 53° Northeast  Level Estimated
Thu 03:53:00 AM 23.2959 115.3165 53° Northeast  Level Estimated
Thu 03:54:00 AM 23.3713 115.4252 53° Northeast  Level Estimated
Thu 03:55:00 AM 23.4466 115.5340 53° Northeast  Level Estimated
Thu 03:56:00 AM 23.5219 115.6429 53° Northeast  Level Estimated
Thu 03:57:00 AM 23.5971 115.7520 53° Northeast  Level Estimated
Thu 03:58:00 AM 23.6722 115.8612 53° Northeast  Level Estimated
Thu 03:59:00 AM 23.7472 115.9705 53° Northeast  Level Estimated
Thu 04:00:00 AM 23.8221 116.0799 53° Northeast  Level Estimated
Thu 04:01:00 AM 23.8970 116.1895 53° Northeast  Level Estimated
Thu 04:02:00 AM 23.9718 116.2992 53° Northeast  Level Estimated
Thu 04:03:00 AM 24.0465 116.4090 53° Northeast  Level Estimated
Thu 04:04:00 AM 24.1212 116.5189 53° Northeast  Level Estimated
Thu 04:05:00 AM 24.1957 116.6290 53° Northeast  Level Estimated
Thu 04:06:00 AM 24.2702 116.7392 53° Northeast  Level Estimated
Thu 04:07:00 AM 24.3446 116.8495 53° Northeast  Level Estimated
Thu 04:08:00 AM 24.4189 116.9600 54° Northeast  Level Estimated
Thu 04:09:00 AM 24.4932 117.0706 54° Northeast  Level Estimated
Thu 04:10:00 AM 24.5673 117.1813 54° Northeast  Level Estimated
Thu 04:11:00 AM 24.6414 117.2921 54° Northeast  Level Estimated
Thu 04:12:00 AM 24.7154 117.4031 54° Northeast  Level Estimated
Thu 04:13:00 AM 24.7893 117.5142 54° Northeast  Level Estimated
Thu 04:14:00 AM 24.8632 117.6255 54° Northeast  Level Estimated
Thu 04:15:00 AM 24.9369 117.7369 54° Northeast  Level Estimated
Thu 04:16:00 AM 25.0106 117.8484 54° Northeast  Level Estimated
Thu 04:17:00 AM 25.0842 117.9600 54° Northeast  Level Estimated
Thu 04:18:00 AM 25.1577 118.0718 54° Northeast  Level Estimated
Thu 04:19:00 AM 25.2311 118.1837 54° Northeast  Level Estimated
Thu 04:20:00 AM 25.3044 118.2958 54° Northeast  Level Estimated
Thu 04:21:00 AM 25.3777 118.4080 54° Northeast  Level Estimated
Thu 04:22:00 AM 25.4508 118.5203 54° Northeast  Level Estimated
Thu 04:23:00 AM 25.5239 118.6327 54° Northeast  Level Estimated
Thu 04:24:00 AM 25.5969 118.7453 54° Northeast  Level Estimated
Thu 04:25:00 AM 25.6698 118.8581 54° Northeast  Level Estimated
Thu 04:26:00 AM 25.7426 118.9709 54° Northeast  Level Estimated
Thu 04:27:00 AM 25.8154 119.0839 54° Northeast  Level Estimated
Thu 04:28:00 AM 25.8880 119.1971 54° Northeast  Level Estimated
Thu 04:29:00 AM 25.9606 119.3104 55° Northeast  Level Estimated
Thu 04:30:00 AM 26.0331 119.4238 55° Northeast  Level Estimated
Thu 04:31:00 AM 26.1054 119.5374 55° Northeast  Level Estimated
Thu 04:32:00 AM 26.1777 119.6511 55° Northeast  Level Estimated
Thu 04:33:00 AM 26.2499 119.7650 55° Northeast  Level Estimated
Thu 04:34:00 AM 26.3220 119.8789 55° Northeast  Level Estimated
Thu 04:35:00 AM 26.3941 119.9931 55° Northeast  Level Estimated
Thu 04:36:00 AM 26.4660 120.1074 55° Northeast  Level Estimated
Thu 04:37:00 AM 26.5378 120.2218 55° Northeast  Level Estimated
Thu 04:38:00 AM 26.6096 120.3363 55° Northeast  Level Estimated
Thu 04:39:00 AM 26.6812 120.4510 55° Northeast  Level Estimated
Thu 04:40:00 AM 26.7528 120.5659 55° Northeast  Level Estimated
Thu 04:41:00 AM 26.8243 120.6809 55° Northeast  Level Estimated
Thu 04:42:00 AM 26.8957 120.7960 55° Northeast  Level Estimated
Thu 04:43:00 AM 26.9669 120.9113 55° Northeast  Level Estimated
Thu 04:44:00 AM 27.0381 121.0267 55° Northeast  Level Estimated
Thu 04:45:00 AM 27.1092 121.1423 55° Northeast  Level Estimated
Thu 04:46:00 AM 27.1802 121.2580 55° Northeast  Level Estimated
Thu 04:47:00 AM 27.2512 121.3739 55° Northeast  Level Estimated
Thu 04:48:00 AM 27.3220 121.4899 55° Northeast  Level Estimated
Thu 04:49:00 AM 27.3927 121.6061 56° Northeast  Level Estimated
Thu 04:50:00 AM 27.4633 121.7224 56° Northeast  Level Estimated
Thu 04:51:00 AM 27.5338 121.8389 56° Northeast  Level Estimated
Thu 04:52:00 AM 27.6042 121.9555 56° Northeast  Level Estimated
Thu 04:53:00 AM 27.6746 122.0722 56° Northeast  Level Estimated
Thu 04:54:00 AM 27.7448 122.1891 56° Northeast  Level Estimated
Thu 04:55:00 AM 27.8149 122.3062 56° Northeast  Level Estimated
Thu 04:56:00 AM 27.8850 122.4234 56° Northeast  Level Estimated
Thu 04:57:00 AM 27.9549 122.5408 56° Northeast  Level Estimated
Thu 04:58:00 AM 28.0247 122.6583 56° Northeast  Level Estimated
Thu 04:59:00 AM 28.0945 122.7760 56° Northeast  Level Estimated
Thu 05:00:00 AM 28.1641 122.8938 56° Northeast  Level Estimated
Thu 05:01:00 AM 28.2336 123.0118 56° Northeast  Level Estimated
Thu 05:02:00 AM 28.3030 123.1299 56° Northeast  Level Estimated
Thu 05:03:00 AM 28.3724 123.2482 56° Northeast  Level Estimated
Thu 05:04:00 AM 28.4416 123.3667 56° Northeast  Level Estimated
Thu 05:05:00 AM 28.5107 123.4853 56° Northeast  Level Estimated
Thu 05:06:00 AM 28.5798 123.6040 56° Northeast  Level Estimated
Thu 05:07:00 AM 28.6487 123.7229 57° Northeast  Level Estimated
Thu 05:08:00 AM 28.7175 123.8420 57° Northeast  Level Estimated
Thu 05:09:00 AM 28.7862 123.9612 57° Northeast  Level Estimated
Thu 05:10:00 AM 28.8548 124.0806 57° Northeast  Level Estimated
Thu 05:11:00 AM 28.9233 124.2001 57° Northeast  Level Estimated
Thu 05:12:00 AM 28.9917 124.3198 57° Northeast  Level Estimated
Thu 05:13:00 AM 29.0600 124.4397 57° Northeast  Level Estimated
Thu 05:14:00 AM 29.1282 124.5597 57° Northeast  Level Estimated
Thu 05:15:00 AM 29.1962 124.6798 57° Northeast  Level Estimated
Thu 05:16:00 AM 29.2642 124.8002 57° Northeast  Level Estimated
Thu 05:17:00 AM 29.3321 124.9207 57° Northeast  Level Estimated
Thu 05:18:00 AM 29.3998 125.0413 57° Northeast  Level Estimated
Thu 05:19:00 AM 29.4674 125.1621 57° Northeast  Level Estimated
Thu 05:20:00 AM 29.5350 125.2831 57° Northeast  Level Estimated
Thu 05:21:00 AM 29.6024 125.4042 57° Northeast  Level Estimated
Thu 05:22:00 AM 29.6697 125.5255 57° Northeast  Level Estimated
Thu 05:23:00 AM 29.7369 125.6470 57° Northeast  Level Estimated
Thu 05:24:00 AM 29.8040 125.7686 58° Northeast  Level Estimated
Thu 05:25:00 AM 29.8710 125.8904 58° Northeast  Level Estimated
Thu 05:26:00 AM 29.9379 126.0123 58° Northeast  Level Estimated
Thu 05:27:00 AM 30.0046 126.1344 58° Northeast  Level Estimated
Thu 05:28:00 AM 30.0713 126.2567 58° Northeast  Level Estimated
Thu 05:29:00 AM 30.1378 126.3791 58° Northeast  Level Estimated
Thu 05:30:00 AM 30.2042 126.5017 58° Northeast  Level Estimated
Thu 05:31:00 AM 30.2705 126.6245 58° Northeast  Level Estimated
Thu 05:32:00 AM 30.3367 126.7474 58° Northeast  Level Estimated
Thu 05:33:00 AM 30.4028 126.8705 58° Northeast  Level Estimated
Thu 05:34:00 AM 30.4687 126.9938 58° Northeast  Level Estimated
Thu 05:35:00 AM 30.5346 127.1172 58° Northeast  Level Estimated
Thu 05:36:00 AM 30.6003 127.2408 58° Northeast  Level Estimated
Thu 05:37:00 AM 30.6659 127.3646 58° Northeast  Level Estimated
Thu 05:38:00 AM 30.7314 127.4885 58° Northeast  Level Estimated
Thu 05:39:00 AM 30.7967 127.6127 58° Northeast  Level Estimated
Thu 05:40:00 AM 30.8620 127.7369 59° Northeast  Level Estimated
Thu 05:41:00 AM 30.9271 127.8614 59° Northeast  Level Estimated
Thu 05:42:00 AM 30.9921 127.9860 59° Northeast  Level Estimated
Thu 05:43:00 AM 31.0570 128.1108 59° Northeast  Level Estimated
Thu 05:44:00 AM 31.1218 128.2357 59° Northeast  Level Estimated
Thu 05:45:00 AM 31.1864 128.3608 59° Northeast  Level Estimated
Thu 05:46:00 AM 31.2510 128.4861 59° Northeast  Level Estimated
Thu 05:47:00 AM 31.3154 128.6116 59° Northeast  Level Estimated
Thu 05:48:00 AM 31.3797 128.7372 59° Northeast  Level Estimated
Thu 05:49:00 AM 31.4438 128.8630 59° Northeast  Level Estimated
Thu 05:50:00 AM 31.5079 128.9890 59° Northeast  Level Estimated
Thu 05:51:00 AM 31.5718 129.1152 59° Northeast  Level Estimated
Thu 05:52:00 AM 31.6356 129.2415 59° Northeast  Level Estimated
Thu 05:53:00 AM 31.6993 129.3680 59° Northeast  Level Estimated
Thu 05:54:00 AM 31.7628 129.4947 59° Northeast  Level Estimated
Thu 05:55:00 AM 31.8263 129.6215 60° Northeast  Level Estimated
Thu 05:56:00 AM 31.8895 129.7485 60° Northeast  Level Estimated
Thu 05:57:00 AM 31.9527 129.8757 60° Northeast  Level Estimated
Thu 05:58:00 AM 32.0158 130.0031 60° Northeast  Level Estimated
Thu 05:59:00 AM 32.0787 130.1307 60° Northeast  Level Estimated
Thu 06:00:00 AM 32.1414 130.2584 60° Northeast  Level Estimated
Thu 06:01:00 AM 32.2041 130.3863 60° Northeast  Level Estimated
Thu 06:02:00 AM 32.2666 130.5143 60° Northeast  Level Estimated
Thu 06:03:00 AM 32.3290 130.6426 60° Northeast  Level Estimated
Thu 06:04:00 AM 32.3913 130.7710 60° Northeast  Level Estimated
Thu 06:05:00 AM 32.4534 130.8996 60° Northeast  Level Estimated
Thu 06:06:00 AM 32.5155 131.0284 60° Northeast  Level Estimated
Thu 06:07:00 AM 32.5773 131.1574 60° Northeast  Level Estimated
Thu 06:08:00 AM 32.6391 131.2865 60° Northeast  Level Estimated
Thu 06:09:00 AM 32.7007 131.4158 60° Northeast  Level Estimated
Thu 06:10:00 AM 32.7622 131.5453 61° Northeast  Level Estimated
Thu 06:11:00 AM 32.8235 131.6750 61° Northeast  Level Estimated
Thu 06:12:00 AM 32.8847 131.8048 61° Northeast  Level Estimated
Thu 06:13:00 AM 32.9458 131.9349 61° Northeast  Level Estimated
Thu 06:14:00 AM 33.0067 132.0651 61° Northeast  Level Estimated
Thu 06:15:00 AM 33.0676 132.1955 61° Northeast  Level Estimated
Thu 06:16:00 AM 33.1282 132.3260 61° Northeast  Level Estimated
Thu 06:17:00 AM 33.1888 132.4568 61° Northeast  Level Estimated
Thu 06:18:00 AM 33.2491 132.5877 61° Northeast  Level Estimated
Thu 06:19:00 AM 33.3094 132.7188 61° Northeast  Level Estimated
Thu 06:20:00 AM 33.3695 132.8501 61° Northeast  Level Estimated
Thu 06:21:00 AM 33.4295 132.9816 61° Northeast  Level Estimated
Thu 06:22:00 AM 33.4893 133.1133 61° Northeast  Level Estimated
Thu 06:23:00 AM 33.5491 133.2451 61° Northeast  Level Estimated
Thu 06:24:00 AM 33.6086 133.3771 62° Northeast  Level Estimated
Thu 06:25:00 AM 33.6680 133.5093 62° Northeast  Level Estimated
Thu 06:26:00 AM 33.7273 133.6417 62° Northeast  Level Estimated
Thu 06:27:00 AM 33.7865 133.7743 62° Northeast  Level Estimated
Thu 06:28:00 AM 33.8455 133.9070 62° Northeast  Level Estimated
Thu 06:29:00 AM 33.9043 134.0400 62° Northeast  Level Estimated
Thu 06:30:00 AM 33.9630 134.1731 62° Northeast  Level Estimated
Thu 06:31:00 AM 34.0216 134.3064 62° Northeast  Level Estimated
Thu 06:32:00 AM 34.0800 134.4399 62° Northeast  Level Estimated
Thu 06:33:00 AM 34.1383 134.5735 62° Northeast  Level Estimated
Thu 06:34:00 AM 34.1965 134.7074 62° Northeast  Level Estimated
Thu 06:35:00 AM 34.2545 134.8414 62° Northeast  Level Estimated
Thu 06:36:00 AM 34.3123 134.9756 62° Northeast  Level Estimated
Thu 06:37:00 AM 34.3700 135.1101 62° Northeast  Level Estimated
Thu 06:38:00 AM 34.4273 135.2441 63° Northeast  Level Estimated
Thu 06:39:00 AM 34.4273 135.2441 158° South  Level Estimated
Thu 06:40:00 AM 34.4273 135.2441 158° South  Level Estimated
Thu 06:41:00 AM 34.4273 135.2441 158° South  Level Estimated
Thu 06:42:00 AM 34.4273 135.2441 158° South  Level Estimated
Thu 06:43:00 AM 34.4273 135.2441 158° South  Level Estimated
Thu 06:44:00 AM 34.4273 135.2441 158° South  Level Estimated
Thu 06:45:00 AM 34.4273 135.2441 158° South  Level Estimated
Thu 06:46:00 AM 34.4273 135.2441 158° South  Level Estimated
Thu 06:47:00 AM 34.4273 135.2441 158° South  Level Estimated
Thu 06:48:00 AM 34.4273 135.2441 158° South  Level Estimated
Thu 06:49:00 AM 34.4273 135.2441 158° South  Level Estimated
Thu 06:50:00 AM 34.4273 135.2441 158° South  Level Estimated
Thu 06:51:00 AM 34.4273 135.2441 158° South  Level Estimated
Thu 06:52:00 AM 34.4273 135.2441 158° South  Level Estimated
Thu 06:53:00 AM 34.4273 135.2441 158° South  Level Estimated
Thu 06:54:00 AM 34.4273 135.2441 158° South  Level Estimated

Login

Don't have an account? Register now (free) for customized features, flight alerts, and more!